createdAt,value
2023-04-25T00:00:51.428Z,19201.8457
2023-04-25T00:01:52.995Z,19200.4609
2023-04-25T00:02:58.038Z,19188.9238
2023-04-25T00:03:56.736Z,19179.6152
2023-04-25T00:04:58.209Z,19178.4609
2023-04-25T00:05:59.575Z,19175.3086
2023-04-25T00:07:01.301Z,19162.3086
2023-04-25T00:08:02.875Z,19163.5391
2023-04-25T00:09:04.535Z,19158.5391
2023-04-25T00:10:06.142Z,19161.6152
2023-04-25T00:11:07.827Z,19161.6152
2023-04-25T00:12:09.479Z,19174.2305
2023-04-25T00:13:11.953Z,19192.3848
2023-04-25T00:14:12.742Z,19197.6152
2023-04-25T00:15:14.421Z,19195.8457
2023-04-25T00:16:16.118Z,19196.3848
2023-04-25T00:17:17.938Z,19190.4609
2023-04-25T00:18:19.372Z,19194.6152
2023-04-25T00:19:21.063Z,19181.3848
2023-04-25T00:20:22.667Z,19171.6152
2023-04-25T00:21:24.338Z,19161.1543
2023-04-25T00:22:26.030Z,19158.7695
2023-04-25T00:23:27.663Z,19159.6152
2023-04-25T00:24:29.261Z,19160.9238
2023-04-25T00:25:30.955Z,19158.3848
2023-04-25T00:26:32.541Z,19163.7695
2023-04-25T00:27:34.276Z,19176.6152
2023-04-25T00:28:35.940Z,19194.6914
2023-04-25T00:29:37.545Z,19199.0000
2023-04-25T00:30:39.237Z,19198.9238
2023-04-25T00:31:40.922Z,19191.9238
2023-04-25T00:32:42.563Z,19195.0000
2023-04-25T00:33:44.195Z,19190.6914
2023-04-25T00:34:45.820Z,19178.0762
2023-04-25T00:35:47.469Z,19167.0000
2023-04-25T00:36:49.049Z,19164.8457
2023-04-25T00:37:51.018Z,19163.0000
2023-04-25T00:38:52.470Z,19159.3848
2023-04-25T00:39:54.091Z,19162.0762
2023-04-25T00:40:55.684Z,19175.3086
2023-04-25T00:41:57.313Z,19194.3086
2023-04-25T00:42:59.045Z,19200.6152
2023-04-25T00:44:01.491Z,19202.3848
2023-04-25T00:45:02.325Z,19193.6152
2023-04-25T00:46:03.918Z,19182.3848
2023-04-25T00:47:05.660Z,19180.0762
2023-04-25T00:48:07.391Z,19178.2305
2023-04-25T00:49:10.441Z,19169.0762
2023-04-25T00:50:10.615Z,19172.3848
2023-04-25T00:51:12.160Z,19170.0762
2023-04-25T00:52:13.818Z,19165.3086
2023-04-25T00:53:15.469Z,19172.1543
2023-04-25T00:54:17.128Z,19193.8457
2023-04-25T00:55:18.836Z,19198.3848
2023-04-25T00:56:20.420Z,19206.3848
2023-04-25T00:57:22.125Z,19207.0000
2023-04-25T00:58:23.727Z,19208.1543
2023-04-25T00:59:25.452Z,19211.6914
2023-04-25T01:00:27.039Z,19211.3086
2023-04-25T01:01:28.867Z,19206.6914
2023-04-25T01:02:30.478Z,19196.3086
2023-04-25T01:03:32.141Z,19192.2305
2023-04-25T01:04:33.772Z,19199.6152
2023-04-25T01:05:35.331Z,19187.2305
2023-04-25T01:06:36.905Z,19186.3086
2023-04-25T01:07:38.584Z,19171.4609
2023-04-25T01:08:40.199Z,19172.4609
2023-04-25T01:09:41.979Z,19176.6914
2023-04-25T01:10:43.973Z,19172.6152
2023-04-25T01:11:45.149Z,19176.6914
2023-04-25T01:12:46.786Z,19188.7695
2023-04-25T01:13:48.772Z,19210.8457
2023-04-25T01:14:50.119Z,19214.8457
2023-04-25T01:15:51.808Z,19211.0762
2023-04-25T01:16:53.395Z,19217.5391
2023-04-25T01:17:55.099Z,19215.0762
2023-04-25T01:18:56.719Z,19213.1543
2023-04-25T01:19:58.393Z,19211.7695
2023-04-25T01:21:00.040Z,19212.0000
2023-04-25T01:22:01.654Z,19211.3848
2023-04-25T01:23:03.306Z,19202.3086
2023-04-25T01:24:04.964Z,19185.9238
2023-04-25T01:25:06.655Z,19175.4609
2023-04-25T01:26:09.043Z,19176.3086
2023-04-25T01:27:09.879Z,19183.0762
2023-04-25T01:28:11.606Z,19173.7695
2023-04-25T01:29:13.212Z,19176.5391
2023-04-25T01:30:15.003Z,19178.4609
2023-04-25T01:31:17.029Z,19177.1543
2023-04-25T01:32:18.309Z,19179.0762
2023-04-25T01:33:19.818Z,19180.6914
2023-04-25T01:34:21.502Z,19197.5391
2023-04-25T01:35:23.163Z,19207.6152
2023-04-25T01:36:24.816Z,19207.9238
2023-04-25T01:37:26.538Z,19213.3848
2023-04-25T01:38:28.085Z,19212.6914
2023-04-25T01:39:29.705Z,19209.4609
2023-04-25T01:40:31.398Z,19195.0000
2023-04-25T01:41:33.063Z,19181.3086
2023-04-25T01:42:34.792Z,19176.0000
2023-04-25T01:43:36.382Z,19177.8457
2023-04-25T01:44:37.973Z,19182.1543
2023-04-25T01:45:39.624Z,19187.6152
2023-04-25T01:46:41.350Z,19204.8457
2023-04-25T01:47:42.905Z,19215.6914
2023-04-25T01:48:44.533Z,19214.9238
2023-04-25T01:49:46.074Z,19214.2305
2023-04-25T01:50:47.789Z,19208.3848
2023-04-25T01:51:49.447Z,19213.0762
2023-04-25T01:52:51.181Z,19210.7695
2023-04-25T01:53:52.944Z,19210.7695
2023-04-25T01:54:54.440Z,19214.3086
2023-04-25T01:55:56.027Z,19208.3848
2023-04-25T01:56:57.724Z,19197.8457
2023-04-25T01:57:59.373Z,19187.6914
2023-04-25T01:59:01.434Z,19180.0000
2023-04-25T02:00:02.693Z,19177.6152
2023-04-25T02:01:04.333Z,19179.8457
2023-04-25T02:02:05.929Z,19178.3086
2023-04-25T02:03:07.752Z,19180.2305
2023-04-25T02:04:09.657Z,19179.3086
2023-04-25T02:05:11.167Z,19185.5391
2023-04-25T02:06:12.695Z,19184.3086
2023-04-25T02:07:14.382Z,19188.9238
2023-04-25T02:08:16.095Z,19205.5391
2023-04-25T02:09:17.665Z,19209.5391
2023-04-25T02:10:20.279Z,19217.3086
2023-04-25T02:11:21.008Z,19218.0000
2023-04-25T02:12:23.133Z,19212.0762
2023-04-25T02:13:24.245Z,19218.9238
2023-04-25T02:14:25.945Z,19215.9238
2023-04-25T02:15:27.545Z,19216.7695
2023-04-25T02:16:29.273Z,19221.4609
2023-04-25T02:17:30.879Z,19216.9238
2023-04-25T02:18:33.535Z,19216.4609
2023-04-25T02:19:34.148Z,19213.2305
2023-04-25T02:20:35.782Z,19213.5391
2023-04-25T02:21:37.427Z,19216.6152
2023-04-25T02:22:39.093Z,19212.6152
2023-04-25T02:23:40.820Z,19209.3848
2023-04-25T02:24:42.461Z,19208.2305
2023-04-25T02:25:44.072Z,19197.0000
2023-04-25T02:26:45.726Z,19185.7695
2023-04-25T02:27:47.387Z,19180.7695
2023-04-25T02:28:48.960Z,19180.0762
2023-04-25T02:29:51.695Z,19181.5391
2023-04-25T02:30:52.255Z,19181.4609
2023-04-25T02:31:54.060Z,19185.9238
2023-04-25T02:32:55.642Z,19181.4609
2023-04-25T02:33:57.270Z,19185.5391
2023-04-25T02:34:58.933Z,19183.9238
2023-04-25T02:36:00.572Z,19191.0000
2023-04-25T02:37:02.258Z,19198.6152
2023-04-25T02:38:03.835Z,19215.0762
2023-04-25T02:39:05.494Z,19222.0000
2023-04-25T02:40:08.139Z,19223.8457
2023-04-25T02:41:08.823Z,19219.3848
2023-04-25T02:42:10.504Z,19222.3848
2023-04-25T02:43:12.073Z,19219.2305
2023-04-25T02:44:13.775Z,19221.4609
2023-04-25T02:45:15.442Z,19218.6152
2023-04-25T02:46:22.978Z,19211.3086
2023-04-25T02:47:18.771Z,19207.8457
2023-04-25T02:48:20.630Z,19196.3086
2023-04-25T02:49:22.064Z,19191.3848
2023-04-25T02:50:24.072Z,19185.2305
2023-04-25T02:51:25.287Z,19184.3086
2023-04-25T02:52:26.965Z,19181.6914
2023-04-25T02:53:28.575Z,19190.4609
2023-04-25T02:54:30.245Z,19191.2305
2023-04-25T02:55:31.989Z,19195.8457
2023-04-25T02:56:33.537Z,19201.8457
2023-04-25T02:57:35.268Z,19219.5391
2023-04-25T02:58:36.816Z,19225.4609
2023-04-25T02:59:38.543Z,19226.6152
2023-04-25T03:00:40.135Z,19232.0000
2023-04-25T03:01:41.925Z,19232.0762
2023-04-25T03:02:43.572Z,19228.5391
2023-04-25T03:03:45.152Z,19230.1543
2023-04-25T03:04:46.777Z,19228.2305
2023-04-25T03:05:48.328Z,19227.7695
2023-04-25T03:06:50.040Z,19225.7695
2023-04-25T03:07:51.711Z,19225.2305
2023-04-25T03:08:53.367Z,19226.7695
2023-04-25T03:09:54.975Z,19226.1543
2023-04-25T03:10:56.645Z,19226.3086
2023-04-25T03:11:58.284Z,19224.5391
2023-04-25T03:12:59.935Z,19220.3848
2023-04-25T03:14:01.647Z,19206.0762
2023-04-25T03:15:03.175Z,19196.0762
2023-04-25T03:16:04.908Z,19196.3848
2023-04-25T03:17:06.437Z,19189.8457
2023-04-25T03:18:08.291Z,19193.2305
2023-04-25T03:19:09.846Z,19186.9238
2023-04-25T03:20:11.513Z,19189.0762
2023-04-25T03:21:13.087Z,19195.6914
2023-04-25T03:22:14.844Z,19194.1543
2023-04-25T03:23:16.421Z,19206.6152
2023-04-25T03:24:18.157Z,19218.8457
2023-04-25T03:25:19.732Z,19231.7695
2023-04-25T03:26:22.448Z,19235.2305
2023-04-25T03:27:23.094Z,19235.1543
2023-04-25T03:28:24.740Z,19235.5391
2023-04-25T03:29:26.374Z,19235.6914
2023-04-25T03:30:28.047Z,19229.6152
2023-04-25T03:31:29.713Z,19229.1543
2023-04-25T03:32:31.363Z,19231.0000
2023-04-25T03:33:32.992Z,19227.6152
2023-04-25T03:34:34.735Z,19217.9238
2023-04-25T03:35:36.249Z,19205.6152
2023-04-25T03:36:39.145Z,19201.1543
2023-04-25T03:37:39.540Z,19203.4609
2023-04-25T03:38:42.226Z,19200.7695
2023-04-25T03:39:43.731Z,19197.9238
2023-04-25T03:40:44.576Z,19201.3848
2023-04-25T03:41:46.102Z,19204.0000
2023-04-25T03:42:47.846Z,19226.6152
2023-04-25T03:43:49.617Z,19240.3086
2023-04-25T03:44:51.146Z,19246.9238
2023-04-25T03:45:52.769Z,19242.2305
2023-04-25T03:46:54.424Z,19241.6152
2023-04-25T03:47:56.009Z,19245.3086
2023-04-25T03:48:57.734Z,19243.3086
2023-04-25T03:50:00.334Z,19241.3848
2023-04-25T03:51:00.951Z,19244.6914
2023-04-25T03:52:02.552Z,19240.9238
2023-04-25T03:53:04.244Z,19238.9238
2023-04-25T03:54:05.928Z,19235.5391
2023-04-25T03:55:08.095Z,19233.2305
2023-04-25T03:56:09.185Z,19220.3848
2023-04-25T03:57:10.836Z,19213.1543
2023-04-25T03:58:12.428Z,19200.6914
2023-04-25T03:59:14.245Z,19195.6152
2023-04-25T04:00:15.795Z,19199.0762
2023-04-25T04:01:18.074Z,19196.1543
2023-04-25T04:02:19.213Z,19199.6914
2023-04-25T04:03:20.925Z,19199.1543
2023-04-25T04:04:22.647Z,19192.8457
2023-04-25T04:05:25.554Z,19186.1543
2023-04-25T04:06:25.693Z,19183.7695
2023-04-25T04:07:27.391Z,19184.6914
2023-04-25T04:08:28.951Z,19186.1543
2023-04-25T04:09:30.672Z,19186.6914
2023-04-25T04:10:32.320Z,19181.9238
2023-04-25T04:11:34.043Z,19175.4609
2023-04-25T04:12:35.530Z,19174.3086
2023-04-25T04:13:37.273Z,19178.3086
2023-04-25T04:14:38.854Z,19175.4609
2023-04-25T04:15:40.652Z,19176.2305
2023-04-25T04:16:42.208Z,19173.6152
2023-04-25T04:17:43.944Z,19168.6152
2023-04-25T04:18:45.500Z,19163.7695
2023-04-25T04:19:47.160Z,19162.1543
2023-04-25T04:20:48.793Z,19155.6914
2023-04-25T04:21:50.530Z,19153.9238
2023-04-25T04:22:52.054Z,19149.1543
2023-04-25T04:23:53.762Z,19144.7695
2023-04-25T04:24:55.405Z,19148.7695
2023-04-25T04:25:57.122Z,19141.0000
2023-04-25T04:26:58.705Z,19141.7695
2023-04-25T04:28:00.384Z,19135.9238
2023-04-25T04:29:01.982Z,19133.3848
2023-04-25T04:30:03.658Z,19131.4609
2023-04-25T04:31:05.401Z,19131.6914
2023-04-25T04:32:07.127Z,19126.0000
2023-04-25T04:33:08.641Z,19125.8457
2023-04-25T04:34:10.269Z,19122.7695
2023-04-25T04:35:11.912Z,19119.9238
2023-04-25T04:36:13.616Z,19117.0762
2023-04-25T04:37:15.225Z,19117.6152
2023-04-25T04:38:16.868Z,19110.2305
2023-04-25T04:39:18.504Z,19112.7695
2023-04-25T04:40:20.193Z,19113.1543
2023-04-25T04:41:21.912Z,19107.3848
2023-04-25T04:42:23.543Z,19107.4609
2023-04-25T04:43:25.143Z,19104.6914
2023-04-25T04:44:26.794Z,19103.8457
2023-04-25T04:45:28.390Z,19100.6152
2023-04-25T04:46:30.133Z,19091.2305
2023-04-25T04:47:31.785Z,19096.2305
2023-04-25T04:48:33.422Z,19096.3086
2023-04-25T04:49:35.043Z,19101.0762
2023-04-25T04:50:36.695Z,19101.6914
2023-04-25T04:51:38.352Z,19096.1543
2023-04-25T04:52:40.059Z,19093.5391
2023-04-25T04:53:41.684Z,19094.7695
2023-04-25T04:54:43.322Z,19095.9238
2023-04-25T04:55:44.944Z,19095.9238
2023-04-25T04:56:46.563Z,19084.0000
2023-04-25T04:57:48.233Z,19072.6152
2023-04-25T04:58:49.976Z,19062.7695
2023-04-25T04:59:51.586Z,19074.5391
2023-04-25T05:00:53.195Z,19074.4609
2023-04-25T05:01:54.864Z,19074.9238
2023-04-25T05:02:56.539Z,19072.8457
2023-04-25T05:03:58.572Z,19073.7695
2023-04-25T05:05:00.137Z,19066.3848
2023-04-25T05:06:01.466Z,19061.9238
2023-04-25T05:07:03.127Z,19067.3848
2023-04-25T05:08:04.718Z,19066.6914
2023-04-25T05:09:06.381Z,19059.9238
2023-04-25T05:10:08.093Z,19051.5391
2023-04-25T05:11:09.666Z,19050.6152
2023-04-25T05:12:11.368Z,19050.2305
2023-04-25T05:13:12.953Z,19054.3848
2023-04-25T05:14:14.714Z,19052.6914
2023-04-25T05:15:16.269Z,19047.0000
2023-04-25T05:16:17.968Z,19047.3086
2023-04-25T05:17:19.583Z,19042.1543
2023-04-25T05:18:23.546Z,19042.0762
2023-04-25T05:19:22.871Z,19038.4609
2023-04-25T05:20:24.560Z,19038.4609
2023-04-25T05:21:26.113Z,19040.6152
2023-04-25T05:22:27.857Z,19035.8457
2023-04-25T05:23:29.454Z,19031.0762
2023-04-25T05:24:31.176Z,19026.7695
2023-04-25T05:25:32.813Z,19022.4609
2023-04-25T05:26:34.453Z,19029.0762
2023-04-25T05:27:36.141Z,19022.6914
2023-04-25T05:28:37.733Z,19020.2305
2023-04-25T05:29:39.312Z,19020.4609
2023-04-25T05:30:41.083Z,19010.6914
2023-04-25T05:31:42.760Z,19008.5391
2023-04-25T05:32:44.371Z,19005.8457
2023-04-25T05:33:45.940Z,19005.8457
2023-04-25T05:34:47.641Z,19008.4609
2023-04-25T05:35:49.333Z,19004.1543
2023-04-25T05:36:50.981Z,18999.1543
2023-04-25T05:37:52.511Z,19004.8457
2023-04-25T05:38:54.227Z,19000.0762
2023-04-25T05:39:55.759Z,18999.0000
2023-04-25T05:40:57.460Z,18991.6152
2023-04-25T05:41:59.532Z,18987.6152
2023-04-25T05:43:01.584Z,18984.3848
2023-04-25T05:44:02.313Z,18984.3848
2023-04-25T05:45:04.058Z,18984.6152
2023-04-25T05:46:05.664Z,18983.5391
2023-04-25T05:47:07.379Z,18978.5391
2023-04-25T05:48:09.031Z,18973.4609
2023-04-25T05:49:10.638Z,18978.9238
2023-04-25T05:50:12.264Z,18971.7695
2023-04-25T05:51:13.929Z,18970.1543
2023-04-25T05:52:15.577Z,18969.9238
2023-04-25T05:53:17.531Z,18965.5391
2023-04-25T05:54:18.894Z,18964.2305
2023-04-25T05:55:20.557Z,18965.4609
2023-04-25T05:56:22.115Z,18975.4609
2023-04-25T05:57:23.880Z,18964.8457
2023-04-25T05:58:25.503Z,18954.5391
2023-04-25T05:59:27.167Z,18961.5391
2023-04-25T06:00:28.741Z,18954.0000
2023-04-25T06:01:30.420Z,18952.1543
2023-04-25T06:02:32.194Z,18952.5391
2023-04-25T06:03:34.086Z,18948.6152
2023-04-25T06:04:35.722Z,18953.3086
2023-04-25T06:05:37.108Z,18953.3848
2023-04-25T06:06:39.534Z,18943.7695
2023-04-25T06:07:40.254Z,18944.5391
2023-04-25T06:08:42.028Z,18944.7695
2023-04-25T06:09:43.682Z,18946.0000
2023-04-25T06:10:45.259Z,18938.9238
2023-04-25T06:11:46.924Z,18942.6914
2023-04-25T06:12:48.615Z,18940.5391
2023-04-25T06:13:50.498Z,18936.5391
2023-04-25T06:14:52.277Z,18938.0762
2023-04-25T06:15:53.686Z,18933.0762
2023-04-25T06:16:55.366Z,18934.9238
2023-04-25T06:17:56.977Z,18937.0762
2023-04-25T06:18:58.648Z,18931.5391
2023-04-25T06:20:00.261Z,18935.3848
2023-04-25T06:21:02.889Z,18934.9238
2023-04-25T06:22:03.538Z,18941.3086
2023-04-25T06:23:05.207Z,18935.9238
2023-04-25T06:24:06.859Z,18928.3086
2023-04-25T06:25:08.557Z,18921.0000
2023-04-25T06:26:10.116Z,18926.2305
2023-04-25T06:27:12.277Z,18918.6914
2023-04-25T06:28:13.422Z,18926.3086
2023-04-25T06:29:15.200Z,18935.3086
2023-04-25T06:30:16.744Z,18937.7695
2023-04-25T06:31:18.520Z,18934.4609
2023-04-25T06:32:20.104Z,18923.6152
2023-04-25T06:33:21.775Z,18923.1543
2023-04-25T06:34:23.739Z,18917.2305
2023-04-25T06:35:25.036Z,18922.5391
2023-04-25T06:36:26.806Z,18912.9238
2023-04-25T06:37:28.302Z,18919.4609
2023-04-25T06:38:29.977Z,18925.4609
2023-04-25T06:39:31.616Z,18922.6152
2023-04-25T06:40:33.239Z,18923.7695
2023-04-25T06:41:35.050Z,18925.7695
2023-04-25T06:42:37.533Z,18917.1543
2023-04-25T06:43:38.099Z,18917.1543
2023-04-25T06:44:39.726Z,18920.9238
2023-04-25T06:45:41.467Z,18920.7695
2023-04-25T06:46:43.113Z,18924.7695
2023-04-25T06:47:44.813Z,18924.6914
2023-04-25T06:48:46.317Z,18921.8457
2023-04-25T06:49:48.004Z,18919.3848
2023-04-25T06:50:50.144Z,18917.7695
2023-04-25T06:51:52.209Z,18928.6914
2023-04-25T06:52:52.911Z,18927.9238
2023-04-25T06:53:54.618Z,18929.0762
2023-04-25T06:54:56.282Z,18927.6914
2023-04-25T06:55:58.209Z,18923.3086
2023-04-25T06:56:59.594Z,18925.6914
2023-04-25T06:58:01.144Z,18928.2305
2023-04-25T06:59:02.866Z,18924.9238
2023-04-25T07:00:04.463Z,18924.0000
2023-04-25T07:01:06.233Z,18928.6152
2023-04-25T07:02:08.661Z,18934.8457
2023-04-25T07:03:09.531Z,18929.3848
2023-04-25T07:04:11.295Z,18926.2305
2023-04-25T07:05:12.743Z,18927.8457
2023-04-25T07:06:14.465Z,18922.7695
2023-04-25T07:07:16.219Z,18923.0762
2023-04-25T07:08:17.658Z,18926.6914
2023-04-25T07:09:19.359Z,18928.7695
2023-04-25T07:10:20.954Z,18923.2305
2023-04-25T07:11:22.690Z,18923.0762
2023-04-25T07:12:24.272Z,18924.5391
2023-04-25T07:13:25.958Z,18920.0000
2023-04-25T07:14:27.599Z,18923.6914
2023-04-25T07:15:29.270Z,18926.8457
2023-04-25T07:16:30.962Z,18918.4609
2023-04-25T07:17:32.597Z,18919.1543
2023-04-25T07:18:34.168Z,18924.8457
2023-04-25T07:19:35.854Z,18918.8457
2023-04-25T07:20:37.452Z,18920.2305
2023-04-25T07:21:39.235Z,18921.0000
2023-04-25T07:22:40.881Z,18918.9238
2023-04-25T07:23:42.493Z,18920.0000
2023-04-25T07:24:44.137Z,18919.6152
2023-04-25T07:25:45.921Z,18919.9238
2023-04-25T07:26:47.523Z,18917.8457
2023-04-25T07:27:49.117Z,18917.7695
2023-04-25T07:28:50.865Z,18916.0000
2023-04-25T07:29:52.387Z,18922.0000
2023-04-25T07:30:54.017Z,18924.9238
2023-04-25T07:31:55.793Z,18917.6152
2023-04-25T07:32:57.404Z,18927.0762
2023-04-25T07:34:00.630Z,18916.7695
2023-04-25T07:35:00.616Z,18921.1543
2023-04-25T07:36:02.286Z,18914.0762
2023-04-25T07:37:03.936Z,18912.3848
2023-04-25T07:38:05.630Z,18912.3086
2023-04-25T07:39:07.207Z,18912.3086
2023-04-25T07:40:08.915Z,18906.6914
2023-04-25T07:41:10.558Z,18911.7695
2023-04-25T07:42:12.214Z,18911.5391
2023-04-25T07:43:13.812Z,18909.1543
2023-04-25T07:44:15.506Z,18914.3848
2023-04-25T07:45:17.092Z,18915.2305
2023-04-25T07:46:18.849Z,18906.5391
2023-04-25T07:47:20.489Z,18911.6152
2023-04-25T07:48:22.131Z,18911.6914
2023-04-25T07:49:23.651Z,18908.1543
2023-04-25T07:50:25.447Z,18906.7695
2023-04-25T07:51:26.938Z,18913.2305
2023-04-25T07:52:28.673Z,18907.5391
2023-04-25T07:53:30.252Z,18911.3848
2023-04-25T07:54:31.949Z,18908.6152
2023-04-25T07:55:33.623Z,18904.5391
2023-04-25T07:56:49.123Z,18907.2305
2023-04-25T07:57:36.895Z,18906.6914
2023-04-25T07:58:38.532Z,18899.9238
2023-04-25T07:59:40.156Z,18905.6914
2023-04-25T08:00:41.803Z,18905.6152
2023-04-25T08:01:43.420Z,18900.9238
2023-04-25T08:02:45.781Z,18908.6152
2023-04-25T08:03:47.861Z,18900.6914
2023-04-25T08:04:48.513Z,18897.5391
2023-04-25T08:05:50.245Z,18899.2305
2023-04-25T08:06:51.707Z,18903.0000
2023-04-25T08:07:53.332Z,18898.4609
2023-04-25T08:08:55.027Z,18892.3086
2023-04-25T08:09:56.590Z,18894.6914
2023-04-25T08:10:58.296Z,18890.6914
2023-04-25T08:11:59.879Z,18884.3086
2023-04-25T08:13:01.611Z,18883.6914
2023-04-25T08:14:03.219Z,18884.3086
2023-04-25T08:15:04.982Z,18884.6914
2023-04-25T08:16:06.548Z,18877.1543
2023-04-25T08:17:08.146Z,18888.3848
2023-04-25T08:18:10.244Z,18888.0762
2023-04-25T08:19:11.510Z,18887.5391
2023-04-25T08:20:13.073Z,18889.2305
2023-04-25T08:21:14.750Z,18877.5391
2023-04-25T08:22:16.391Z,18886.6152
2023-04-25T08:23:18.148Z,18880.1543
2023-04-25T08:24:19.720Z,18880.7695
2023-04-25T08:25:21.370Z,18883.6152
2023-04-25T08:26:23.030Z,18884.7695
2023-04-25T08:27:25.183Z,18885.0762
2023-04-25T08:28:26.346Z,18875.3086
2023-04-25T08:29:27.988Z,18872.3848
2023-04-25T08:30:29.564Z,18875.9238
2023-04-25T08:31:31.251Z,18873.5391
2023-04-25T08:32:32.880Z,18875.3848
2023-04-25T08:33:34.601Z,18877.3086
2023-04-25T08:34:36.698Z,18878.0000
2023-04-25T08:35:37.843Z,18884.0000
2023-04-25T08:36:40.305Z,18879.7695
2023-04-25T08:37:41.137Z,18867.2305
2023-04-25T08:38:42.772Z,18874.1543
2023-04-25T08:39:44.476Z,18876.9238
2023-04-25T08:40:46.045Z,18877.9238
2023-04-25T08:41:47.741Z,18860.0762
2023-04-25T08:42:49.341Z,18867.0000
2023-04-25T08:43:51.064Z,18869.3848
2023-04-25T08:44:52.944Z,18867.3848
2023-04-25T08:45:54.325Z,18860.6152
2023-04-25T08:46:55.949Z,18857.6914
2023-04-25T08:47:57.632Z,18859.9238
2023-04-25T08:48:59.423Z,18861.0000
2023-04-25T08:50:00.976Z,18867.0000
2023-04-25T08:51:02.557Z,18858.4609
2023-04-25T08:52:04.246Z,18854.6152
2023-04-25T08:53:05.954Z,18857.6152
2023-04-25T08:54:34.219Z,18865.5391
2023-04-25T08:55:09.215Z,18863.2305
2023-04-25T08:56:10.766Z,18858.0000
2023-04-25T08:57:12.450Z,18858.2305
2023-04-25T08:58:14.104Z,18871.7695
2023-04-25T08:59:16.779Z,18869.0000
2023-04-25T09:00:17.400Z,18863.3848
2023-04-25T09:01:19.071Z,18874.1543
2023-04-25T09:02:20.799Z,18866.6152
2023-04-25T09:03:22.489Z,18869.5391
2023-04-25T09:04:24.061Z,18868.8457
2023-04-25T09:05:25.746Z,18870.5391
2023-04-25T09:06:27.278Z,18871.2305
2023-04-25T09:07:28.907Z,18871.5391
2023-04-25T09:08:30.555Z,18877.1543
2023-04-25T09:09:32.331Z,18872.9238
2023-04-25T09:10:34.027Z,18881.1543
2023-04-25T09:11:35.511Z,18881.2305
2023-04-25T09:12:37.180Z,18891.6152
2023-04-25T09:13:38.853Z,18887.8457
2023-04-25T09:14:40.484Z,18893.0000
2023-04-25T09:15:42.150Z,18904.8457
2023-04-25T09:16:43.757Z,18893.9238
2023-04-25T09:17:45.556Z,18892.0762
2023-04-25T09:18:49.124Z,18899.8457
2023-04-25T09:19:49.298Z,18895.9238
2023-04-25T09:21:00.116Z,18892.3848
2023-04-25T09:21:52.064Z,18901.3086
2023-04-25T09:22:53.614Z,18918.8457
2023-04-25T09:23:55.380Z,18925.1543
2023-04-25T09:24:57.008Z,18919.3086
2023-04-25T09:25:58.620Z,18910.4609
2023-04-25T09:27:00.247Z,18912.7695
2023-04-25T09:28:01.882Z,18916.9238
2023-04-25T09:29:03.492Z,18929.2305
2023-04-25T09:30:05.186Z,18933.0762
2023-04-25T09:31:06.946Z,18916.3086
2023-04-25T09:32:08.544Z,18920.0000
2023-04-25T09:33:10.231Z,18926.0000
2023-04-25T09:34:11.748Z,18930.4609
2023-04-25T09:35:13.475Z,18932.4609
2023-04-25T09:36:15.105Z,18931.1543
2023-04-25T09:37:16.746Z,18931.9238
2023-04-25T09:38:18.321Z,18933.0000
2023-04-25T09:39:20.028Z,18920.3086
2023-04-25T09:40:21.678Z,18927.2305
2023-04-25T09:41:23.385Z,18935.9238
2023-04-25T09:42:24.979Z,18939.5391
2023-04-25T09:43:26.626Z,18941.4609
2023-04-25T09:44:28.267Z,18947.3086
2023-04-25T09:45:29.975Z,18940.9238
2023-04-25T09:46:31.657Z,18925.7695
2023-04-25T09:47:33.222Z,18919.5391
2023-04-25T09:48:34.842Z,18914.9238
2023-04-25T09:49:36.516Z,18916.4609
2023-04-25T09:50:38.768Z,18927.1543
2023-04-25T09:51:39.852Z,18942.6152
2023-04-25T09:52:41.420Z,18946.0000
2023-04-25T09:53:43.134Z,18939.6914
2023-04-25T09:54:44.754Z,18909.7695
2023-04-25T09:55:46.431Z,18894.0000
2023-04-25T09:56:48.100Z,18890.9238
2023-04-25T09:57:49.621Z,18907.7695
2023-04-25T09:58:51.312Z,18909.4609
2023-04-25T09:59:52.919Z,18899.7695
2023-04-25T10:00:54.682Z,18894.6152
2023-04-25T10:01:56.723Z,18905.8457
2023-04-25T10:02:57.937Z,18910.3848
2023-04-25T10:03:59.835Z,18900.2305
2023-04-25T10:05:01.229Z,18904.9238
2023-04-25T10:06:02.863Z,18899.7695
2023-04-25T10:07:04.788Z,18899.6914
2023-04-25T10:08:06.053Z,18896.6914
2023-04-25T10:09:07.802Z,18897.9238
2023-04-25T10:10:09.389Z,18899.7695
2023-04-25T10:11:11.292Z,18899.8457
2023-04-25T10:12:12.738Z,18910.4609
2023-04-25T10:13:14.399Z,18911.6152
2023-04-25T10:14:15.939Z,18906.4609
2023-04-25T10:15:17.659Z,18899.4609
2023-04-25T10:16:19.412Z,18910.9238
2023-04-25T10:17:21.008Z,18920.1543
2023-04-25T10:18:22.528Z,18909.4609
2023-04-25T10:19:24.276Z,18900.3848
2023-04-25T10:20:25.868Z,18900.0762
2023-04-25T10:21:27.613Z,18900.4609
2023-04-25T10:22:29.218Z,18901.7695
2023-04-25T10:23:30.891Z,18897.4609
2023-04-25T10:24:32.493Z,18897.9238
2023-04-25T10:25:34.122Z,18904.5391
2023-04-25T10:26:36.299Z,18912.3086
2023-04-25T10:27:38.299Z,18900.2305
2023-04-25T10:28:39.154Z,18901.4609
2023-04-25T10:29:40.768Z,18899.9238
2023-04-25T10:30:42.324Z,18895.8457
2023-04-25T10:31:44.094Z,18892.3086
2023-04-25T10:32:45.699Z,18899.8457
2023-04-25T10:33:48.528Z,18895.8457
2023-04-25T10:34:48.956Z,18895.3848
2023-04-25T10:35:50.643Z,18941.1543
2023-04-25T10:36:52.205Z,19025.5391
2023-04-25T10:37:53.995Z,19108.3086
2023-04-25T10:38:55.570Z,19137.7695
2023-04-25T10:39:57.213Z,19150.1543
2023-04-25T10:40:58.818Z,19166.0000
2023-04-25T10:42:00.518Z,19143.1543
2023-04-25T10:43:02.196Z,19116.6914
2023-04-25T10:44:04.812Z,19094.6152
2023-04-25T10:45:05.436Z,19049.8457
2023-04-25T10:46:07.169Z,18973.5391
2023-04-25T10:47:08.867Z,18953.6914
2023-04-25T10:48:11.384Z,18957.1543
2023-04-25T10:49:14.272Z,18942.8457
2023-04-25T10:50:13.736Z,18941.7695
2023-04-25T10:51:15.350Z,18950.4609
2023-04-25T10:52:17.032Z,18944.8457
2023-04-25T10:53:19.260Z,18927.7695
2023-04-25T10:54:21.355Z,18932.0000
2023-04-25T10:55:21.977Z,18918.7695
2023-04-25T10:56:24.208Z,18911.3848
2023-04-25T10:57:25.231Z,18923.2305
2023-04-25T10:58:26.961Z,18925.2305
2023-04-25T10:59:28.565Z,18921.0000
2023-04-25T11:00:42.964Z,18919.9238
2023-04-25T11:01:31.894Z,18908.4609
2023-04-25T11:02:33.612Z,18903.0762
2023-04-25T11:03:35.419Z,18916.7695
2023-04-25T11:04:37.689Z,18915.3848
2023-04-25T11:05:51.006Z,18912.3086
2023-04-25T11:06:40.084Z,18900.4609
2023-04-25T11:08:43.391Z,18917.0000
2023-04-25T11:09:45.103Z,18910.7695
2023-04-25T11:10:46.763Z,18911.0762
2023-04-25T11:11:48.784Z,18901.4609
2023-04-25T11:12:50.060Z,18904.4609
2023-04-25T11:13:51.609Z,18912.0000
2023-04-25T11:14:53.352Z,18896.0762
2023-04-25T11:16:03.279Z,18887.6152
2023-04-25T11:16:58.187Z,18895.2305
2023-04-25T11:17:58.284Z,18899.3848
2023-04-25T11:18:59.930Z,18904.8457
2023-04-25T11:20:01.507Z,18899.6152
2023-04-25T11:21:03.204Z,18887.4609
2023-04-25T11:22:04.964Z,18896.7695
2023-04-25T11:23:06.587Z,18886.6152
2023-04-25T11:24:08.091Z,18881.3848
2023-04-25T11:25:09.794Z,18873.3848